createdAt,value
2022-07-28T00:00:56.906Z,3.30
2022-07-28T00:03:23.857Z,2.85
2022-07-28T00:05:57.207Z,2.75
2022-07-28T00:08:30.214Z,2.58
2022-07-28T00:10:56.834Z,2.55
2022-07-28T00:13:23.506Z,2.78
2022-07-28T00:15:56.315Z,3.00
2022-07-28T00:18:36.234Z,3.22
2022-07-28T00:21:09.253Z,3.25
2022-07-28T00:23:39.067Z,3.00
2022-07-28T00:26:14.208Z,2.95
2022-07-28T00:28:41.235Z,3.08
2022-07-28T00:31:14.306Z,2.92
2022-07-28T00:33:48.186Z,2.95
2022-07-28T00:36:14.826Z,3.42
2022-07-28T00:38:48.825Z,3.03
2022-07-28T00:41:23.207Z,2.67
2022-07-28T00:43:58.282Z,2.70
2022-07-28T00:46:25.426Z,2.97
2022-07-28T00:48:54.972Z,3.42
2022-07-28T00:51:31.199Z,3.00
2022-07-28T00:54:05.230Z,2.70
2022-07-28T00:56:33.230Z,2.80
2022-07-28T00:59:00.530Z,2.40
2022-07-28T01:01:34.364Z,2.80
2022-07-28T01:04:09.236Z,2.38
2022-07-28T01:07:31.306Z,2.97
2022-07-28T01:10:16.666Z,2.88
2022-07-28T01:13:05.233Z,3.10
2022-07-28T01:15:40.046Z,2.55
2022-07-28T01:18:19.461Z,2.67
2022-07-28T01:21:08.051Z,3.10
2022-07-28T01:24:00.189Z,2.80
2022-07-28T01:26:54.209Z,2.35
2022-07-28T01:29:42.589Z,2.65
2022-07-28T01:32:38.381Z,3.00
2022-07-28T01:35:24.488Z,2.42
2022-07-28T01:38:01.460Z,2.33
2022-07-28T01:40:33.405Z,2.55
2022-07-28T01:43:09.210Z,2.28
2022-07-28T01:45:42.404Z,2.95
2022-07-28T01:48:18.495Z,2.22
2022-07-28T01:50:48.714Z,2.25
2022-07-28T01:55:57.468Z,2.58
2022-07-28T01:58:33.493Z,2.50
2022-07-28T02:01:03.474Z,2.45
2022-07-28T02:03:31.577Z,2.88
2022-07-28T02:06:09.208Z,2.78
2022-07-28T02:08:44.245Z,2.90
2022-07-28T02:11:29.694Z,3.25
2022-07-28T02:14:04.264Z,2.70
2022-07-28T02:16:32.132Z,3.00
2022-07-28T02:19:00.549Z,3.13
2022-07-28T02:21:37.261Z,2.78
2022-07-28T02:24:06.038Z,3.17
2022-07-28T02:26:36.812Z,2.97
2022-07-28T02:29:27.638Z,2.80
2022-07-28T02:32:27.328Z,3.03
2022-07-28T02:35:09.672Z,2.90
2022-07-28T02:37:40.098Z,2.85
2022-07-28T02:40:20.202Z,2.42
2022-07-28T02:42:56.214Z,3.30
2022-07-28T02:45:27.170Z,2.92
2022-07-28T02:48:04.288Z,2.42
2022-07-28T02:50:31.240Z,2.60
2022-07-28T02:53:15.027Z,3.20
2022-07-28T02:55:44.027Z,2.80
2022-07-28T02:58:18.222Z,3.10
2022-07-28T03:00:46.006Z,3.10
2022-07-28T03:03:20.208Z,2.83
2022-07-28T03:06:01.366Z,2.88
2022-07-28T03:08:35.385Z,3.83
2022-07-28T03:11:10.536Z,3.38
2022-07-28T03:13:44.825Z,3.50
2022-07-28T03:16:11.937Z,2.50
2022-07-28T03:18:39.061Z,3.05
2022-07-28T03:21:12.207Z,3.00
2022-07-28T03:23:50.214Z,2.97
2022-07-28T03:26:41.296Z,3.10
2022-07-28T03:29:17.230Z,3.05
2022-07-28T03:31:47.972Z,3.17
2022-07-28T03:34:15.807Z,3.60
2022-07-28T03:36:53.234Z,3.38
2022-07-28T03:39:32.590Z,3.22
2022-07-28T03:42:01.648Z,3.47
2022-07-28T03:44:29.944Z,2.88
2022-07-28T03:47:03.215Z,3.42
2022-07-28T03:49:36.236Z,3.78
2022-07-28T03:52:09.269Z,3.22
2022-07-28T03:54:35.977Z,2.72
2022-07-28T03:57:09.267Z,3.22
2022-07-28T03:59:42.265Z,3.05
2022-07-28T04:02:09.037Z,2.80
2022-07-28T04:05:04.260Z,2.70
2022-07-28T04:07:37.237Z,2.97
2022-07-28T04:10:11.236Z,2.97
2022-07-28T04:12:47.963Z,2.97
2022-07-28T04:15:23.510Z,2.88
2022-07-28T04:17:58.266Z,2.92
2022-07-28T04:20:33.254Z,3.75
2022-07-28T04:22:59.899Z,3.17
2022-07-28T04:25:27.592Z,3.75
2022-07-28T04:28:02.279Z,3.42
2022-07-28T04:30:32.262Z,2.80
2022-07-28T04:32:59.660Z,3.70
2022-07-28T04:35:35.246Z,3.53
2022-07-28T04:38:02.150Z,3.63
2022-07-28T04:40:35.259Z,3.78
2022-07-28T04:43:04.045Z,3.10
2022-07-28T04:45:37.344Z,3.92
2022-07-28T04:48:11.261Z,4.10
2022-07-28T04:50:40.633Z,4.07
2022-07-28T04:53:07.463Z,3.72
2022-07-28T04:55:41.226Z,4.30
2022-07-28T04:58:14.274Z,4.00
2022-07-28T05:00:43.295Z,3.38
2022-07-28T05:03:09.963Z,3.72
2022-07-28T05:05:43.201Z,4.20
2022-07-28T05:08:13.837Z,4.28
2022-07-28T05:10:40.448Z,3.90
2022-07-28T05:13:14.236Z,3.53
2022-07-28T05:15:47.255Z,4.10
2022-07-28T05:18:20.205Z,4.25
2022-07-28T05:20:53.218Z,3.70
2022-07-28T05:23:19.924Z,4.60
2022-07-28T05:25:53.198Z,3.53
2022-07-28T05:28:26.306Z,3.70
2022-07-28T05:30:59.266Z,3.63
2022-07-28T05:33:32.290Z,4.18
2022-07-28T05:36:05.213Z,3.30
2022-07-28T05:38:38.259Z,3.45
2022-07-28T05:41:13.274Z,3.88
2022-07-28T05:43:40.078Z,3.90
2022-07-28T05:46:07.137Z,4.20
2022-07-28T05:48:40.255Z,3.58
2022-07-28T05:51:07.057Z,3.65
2022-07-28T05:53:33.749Z,3.80
2022-07-28T05:56:07.233Z,4.10
2022-07-28T05:58:40.239Z,3.40
2022-07-28T06:01:06.945Z,3.58
2022-07-28T06:03:39.772Z,3.95
2022-07-28T06:06:16.959Z,3.28
2022-07-28T06:08:45.073Z,3.50
2022-07-28T06:11:21.852Z,3.80
2022-07-28T06:13:50.531Z,3.70
2022-07-28T06:16:17.366Z,3.22
2022-07-28T06:18:50.189Z,3.72
2022-07-28T06:21:23.227Z,3.92
2022-07-28T06:23:49.905Z,3.03
2022-07-28T06:26:23.831Z,3.47
2022-07-28T06:28:50.611Z,3.45
2022-07-28T06:31:24.363Z,2.85
2022-07-28T06:33:51.047Z,3.22
2022-07-28T06:36:17.744Z,3.42
2022-07-28T06:38:51.234Z,3.05
2022-07-28T06:41:24.210Z,2.35
2022-07-28T06:43:59.215Z,3.05
2022-07-28T06:46:28.268Z,2.33
2022-07-28T06:49:01.265Z,2.35
2022-07-28T06:51:34.217Z,2.25
2022-07-28T06:54:10.734Z,2.55
2022-07-28T06:56:44.272Z,1.60
2022-07-28T06:59:16.558Z,2.55
2022-07-28T07:01:50.355Z,2.13
2022-07-28T07:04:17.615Z,2.00
2022-07-28T07:06:57.213Z,1.75
2022-07-28T07:09:23.960Z,1.83
2022-07-28T07:11:50.597Z,2.38
2022-07-28T07:14:24.255Z,2.20
2022-07-28T07:16:51.030Z,2.60
2022-07-28T07:19:24.226Z,2.15
2022-07-28T07:21:51.344Z,2.55
2022-07-28T07:24:18.403Z,2.00
2022-07-28T07:26:51.282Z,2.35
2022-07-28T07:29:18.278Z,1.90
2022-07-28T07:31:52.962Z,2.70
2022-07-28T07:34:27.226Z,2.63
2022-07-28T07:37:00.254Z,2.00
2022-07-28T07:39:27.060Z,2.20
2022-07-28T07:41:53.706Z,1.90
2022-07-28T07:44:27.230Z,1.80
2022-07-28T07:47:00.349Z,2.38
2022-07-28T07:49:43.403Z,1.85
2022-07-28T07:52:19.552Z,1.83
2022-07-28T07:54:46.352Z,1.95
2022-07-28T07:57:19.243Z,1.75
2022-07-28T07:59:45.926Z,2.60
2022-07-28T08:02:12.648Z,2.05
2022-07-28T08:04:46.372Z,2.08
2022-07-28T08:07:22.213Z,1.70
2022-07-28T08:09:56.250Z,1.70
2022-07-28T08:12:25.245Z,2.08
2022-07-28T08:14:52.678Z,2.03
2022-07-28T08:17:26.484Z,2.22
2022-07-28T08:19:53.619Z,1.70
2022-07-28T08:22:20.522Z,2.05
2022-07-28T08:24:54.294Z,1.80
2022-07-28T08:27:27.288Z,2.03
2022-07-28T08:29:53.946Z,2.55
2022-07-28T08:32:27.771Z,2.42
2022-07-28T08:35:30.255Z,1.70
2022-07-28T08:37:47.980Z,1.80
2022-07-28T08:40:25.768Z,1.98
2022-07-28T08:43:13.322Z,1.85
2022-07-28T08:45:48.271Z,1.80
2022-07-28T08:48:24.270Z,2.47
2022-07-28T08:50:52.112Z,2.08
2022-07-28T08:53:21.475Z,2.47
2022-07-28T08:55:56.313Z,1.97
2022-07-28T08:58:23.060Z,1.80
2022-07-28T09:00:56.285Z,2.03
2022-07-28T09:03:30.404Z,1.73
2022-07-28T09:06:17.317Z,1.65
2022-07-28T09:08:43.960Z,2.55
2022-07-28T09:11:10.655Z,2.20
2022-07-28T09:13:44.234Z,1.83
2022-07-28T09:16:21.355Z,1.75
2022-07-28T09:18:48.016Z,1.85
2022-07-28T09:21:15.487Z,1.85
2022-07-28T09:23:51.387Z,1.92
2022-07-28T09:26:18.541Z,1.50
2022-07-28T09:28:50.083Z,1.80
2022-07-28T09:31:24.342Z,1.50
2022-07-28T09:34:07.282Z,1.65
2022-07-28T09:36:46.261Z,1.90
2022-07-28T09:39:36.300Z,1.55
2022-07-28T09:42:09.338Z,1.55
2022-07-28T09:44:36.041Z,1.52
2022-07-28T09:47:28.508Z,1.52
2022-07-28T09:50:02.334Z,1.80
2022-07-28T09:52:41.262Z,1.58
2022-07-28T09:55:11.776Z,2.15
2022-07-28T09:57:46.330Z,1.73
2022-07-28T10:00:27.823Z,2.05
2022-07-28T10:03:01.364Z,1.73
2022-07-28T10:05:52.032Z,2.33
2022-07-28T10:08:42.811Z,1.90
2022-07-28T10:11:17.302Z,1.60
2022-07-28T10:13:57.026Z,1.58
2022-07-28T10:16:33.342Z,2.33
2022-07-28T10:19:09.253Z,2.28
2022-07-28T10:21:44.434Z,1.85
2022-07-28T10:24:27.231Z,2.10
2022-07-28T10:26:57.050Z,1.40
2022-07-28T10:29:24.712Z,1.48
2022-07-28T10:32:05.233Z,1.40
2022-07-28T10:34:36.067Z,2.13
2022-07-28T10:37:11.264Z,1.50
2022-07-28T10:39:49.264Z,2.67
2022-07-28T10:42:16.485Z,2.00
2022-07-28T10:44:52.229Z,1.70
2022-07-28T10:47:20.447Z,1.90
2022-07-28T10:49:55.250Z,2.03
2022-07-28T10:52:47.144Z,1.70
2022-07-28T10:55:43.299Z,2.15
2022-07-28T10:58:25.275Z,1.95
2022-07-28T11:01:06.506Z,2.05
2022-07-28T11:03:44.969Z,2.00
2022-07-28T11:06:53.251Z,2.20
2022-07-28T11:09:19.888Z,2.00
2022-07-28T11:11:47.714Z,1.70
2022-07-28T11:14:33.283Z,2.20
2022-07-28T11:17:10.110Z,2.15
2022-07-28T11:20:01.139Z,2.10
2022-07-28T11:22:36.979Z,2.37
2022-07-28T11:25:19.944Z,2.05
2022-07-28T11:27:52.115Z,1.80
2022-07-28T11:30:25.344Z,1.88
2022-07-28T11:32:55.086Z,1.70
2022-07-28T11:35:36.268Z,1.67
2022-07-28T11:38:09.297Z,1.98
2022-07-28T11:40:41.318Z,1.90
2022-07-28T11:43:37.925Z,1.65
2022-07-28T11:46:10.104Z,2.00
2022-07-28T11:48:45.415Z,1.60
2022-07-28T11:51:13.543Z,1.85
2022-07-28T11:53:48.284Z,2.40
2022-07-28T11:56:22.236Z,2.13
2022-07-28T11:59:10.621Z,1.77
2022-07-28T12:01:38.186Z,1.58
2022-07-28T12:04:18.505Z,1.80
2022-07-28T12:09:42.614Z,1.70
2022-07-28T12:12:09.681Z,1.60
2022-07-28T12:14:47.255Z,1.83
2022-07-28T12:17:15.022Z,2.05
2022-07-28T12:19:49.243Z,2.13
2022-07-28T12:22:16.029Z,1.88
2022-07-28T12:24:49.405Z,1.67
2022-07-28T12:27:31.725Z,1.70
2022-07-28T12:30:07.356Z,1.65
2022-07-28T12:32:42.269Z,2.05
2022-07-28T12:35:16.383Z,1.83
2022-07-28T12:37:48.051Z,1.83
2022-07-28T12:40:28.339Z,2.47
2022-07-28T12:42:55.005Z,1.95
2022-07-28T12:45:21.815Z,2.00
2022-07-28T12:47:55.302Z,1.90
2022-07-28T12:50:22.070Z,1.70
2022-07-28T12:53:16.289Z,1.77
2022-07-28T12:55:43.966Z,1.95
2022-07-28T12:58:34.281Z,1.60
2022-07-28T13:01:01.449Z,1.67
2022-07-28T13:03:29.293Z,1.75
2022-07-28T13:06:10.339Z,1.42
2022-07-28T13:08:52.281Z,1.90
2022-07-28T13:11:43.329Z,1.80
2022-07-28T13:14:22.041Z,2.13
2022-07-28T13:16:58.042Z,1.80
2022-07-28T13:19:31.283Z,1.42
2022-07-28T13:22:04.039Z,1.88
2022-07-28T13:24:40.287Z,1.55
2022-07-28T13:27:13.384Z,1.42
2022-07-28T13:29:46.276Z,1.50
2022-07-28T13:32:13.053Z,1.55
2022-07-28T13:34:46.303Z,1.65
2022-07-28T13:37:13.058Z,2.03
2022-07-28T13:39:49.536Z,1.80
2022-07-28T13:42:19.455Z,1.40
2022-07-28T13:44:46.119Z,1.52
2022-07-28T13:47:20.281Z,1.83
2022-07-28T13:49:53.273Z,1.83
2022-07-28T13:52:33.286Z,1.63
2022-07-28T13:55:10.297Z,1.60
2022-07-28T13:57:37.049Z,1.73
2022-07-28T14:00:13.271Z,1.35
2022-07-28T14:05:38.426Z,1.45
2022-07-28T14:08:18.550Z,1.40
2022-07-28T14:10:56.274Z,1.50
2022-07-28T14:13:23.151Z,1.60
2022-07-28T14:16:07.780Z,1.67
2022-07-28T14:21:12.321Z,1.52
2022-07-28T14:26:36.397Z,1.80
2022-07-28T14:29:11.866Z,1.63
2022-07-28T14:31:38.748Z,1.50
2022-07-28T14:34:12.698Z,1.88
2022-07-28T14:36:39.627Z,1.77
2022-07-28T14:39:13.347Z,1.67
2022-07-28T14:41:40.159Z,1.70
2022-07-28T14:44:15.376Z,1.98
2022-07-28T14:46:50.685Z,1.50
2022-07-28T14:49:24.333Z,1.85
2022-07-28T14:51:51.072Z,1.48
2022-07-28T14:54:18.203Z,1.60
2022-07-28T14:56:51.301Z,1.63
2022-07-28T14:59:17.949Z,1.50
2022-07-28T15:01:44.815Z,1.50
2022-07-28T15:04:20.530Z,1.58
2022-07-28T15:07:00.333Z,1.85
2022-07-28T15:09:27.303Z,1.30
2022-07-28T15:11:54.071Z,1.52
2022-07-28T15:14:27.297Z,1.55
2022-07-28T15:16:54.118Z,1.42
2022-07-28T15:19:27.350Z,1.30
2022-07-28T15:21:53.997Z,1.50
2022-07-28T15:24:28.496Z,1.50
2022-07-28T15:27:01.285Z,2.03
2022-07-28T15:29:36.280Z,1.83
2022-07-28T15:32:12.977Z,1.60
2022-07-28T15:34:39.871Z,1.60
2022-07-28T15:37:13.335Z,2.03
2022-07-28T15:39:44.757Z,1.50
2022-07-28T15:42:18.291Z,1.58
2022-07-28T15:44:51.285Z,1.80
2022-07-28T15:47:17.939Z,1.77
2022-07-28T15:49:51.342Z,1.77
2022-07-28T15:52:18.106Z,1.77
2022-07-28T15:54:51.323Z,1.70
2022-07-28T15:57:19.659Z,1.50
2022-07-28T15:59:53.331Z,1.65
2022-07-28T16:02:26.398Z,1.60
2022-07-28T16:04:59.458Z,1.27
2022-07-28T16:07:35.173Z,1.60
2022-07-28T16:10:09.354Z,1.40
2022-07-28T16:12:42.359Z,1.75
2022-07-28T16:15:15.310Z,1.80
2022-07-28T16:17:42.217Z,1.80
2022-07-28T16:20:10.409Z,1.88
2022-07-28T16:22:45.358Z,1.80
2022-07-28T16:25:16.625Z,1.92
2022-07-28T16:27:44.537Z,1.60
2022-07-28T16:30:19.341Z,1.48
2022-07-28T16:32:46.424Z,2.00
2022-07-28T16:35:14.075Z,1.77
2022-07-28T16:37:47.361Z,1.52
2022-07-28T16:40:20.334Z,1.45
2022-07-28T16:42:48.776Z,1.67
2022-07-28T16:45:22.335Z,1.70
2022-07-28T16:47:49.025Z,2.50
2022-07-28T16:50:17.422Z,2.58
2022-07-28T16:52:50.315Z,15.32
2022-07-28T16:55:24.311Z,4.50
2022-07-28T16:57:52.137Z,2.35
2022-07-28T17:00:20.317Z,1.95
2022-07-28T17:02:53.344Z,1.92
2022-07-28T17:05:20.332Z,3.08
2022-07-28T17:08:00.313Z,1.60
2022-07-28T17:10:27.415Z,2.03
2022-07-28T17:12:54.941Z,1.42
2022-07-28T17:15:28.309Z,1.60
2022-07-28T17:18:02.326Z,1.80
2022-07-28T17:20:29.003Z,1.88
2022-07-28T17:22:55.776Z,1.52
2022-07-28T17:25:52.340Z,2.17
2022-07-28T17:28:16.018Z,1.50
2022-07-28T17:30:49.365Z,1.77
2022-07-28T17:33:16.105Z,1.70
2022-07-28T17:35:49.349Z,1.80
2022-07-28T17:38:32.811Z,1.60
2022-07-28T17:41:10.318Z,1.42
2022-07-28T17:43:39.918Z,1.67
2022-07-28T17:46:10.534Z,1.42
2022-07-28T17:48:45.338Z,1.47
2022-07-28T17:51:12.054Z,2.00
2022-07-28T17:53:39.171Z,1.40
2022-07-28T17:56:13.380Z,1.77
2022-07-28T17:58:40.661Z,1.42
2022-07-28T18:01:11.974Z,1.13
2022-07-28T18:03:57.719Z,1.52
2022-07-28T18:06:41.433Z,1.42
2022-07-28T18:09:22.340Z,1.70
2022-07-28T18:11:56.398Z,1.63
2022-07-28T18:14:26.737Z,1.70
2022-07-28T18:16:53.561Z,1.48
2022-07-28T18:19:26.522Z,1.60
2022-07-28T18:21:59.336Z,1.80
2022-07-28T18:24:26.346Z,1.90
2022-07-28T18:27:00.331Z,2.08
2022-07-28T18:29:38.313Z,2.25
2022-07-28T18:32:14.333Z,1.90
2022-07-28T18:34:48.526Z,1.83
2022-07-28T18:37:21.344Z,1.88
2022-07-28T18:39:48.808Z,1.77
2022-07-28T18:42:16.011Z,1.92
2022-07-28T18:44:49.338Z,1.60
2022-07-28T18:47:16.018Z,2.50
2022-07-28T18:49:49.334Z,2.05
2022-07-28T18:52:17.484Z,1.83
2022-07-28T18:54:50.405Z,2.20
2022-07-28T18:57:17.396Z,1.77
2022-07-28T18:59:47.762Z,1.80
2022-07-28T19:02:26.298Z,1.60
2022-07-28T19:04:53.192Z,1.63
2022-07-28T19:07:33.350Z,1.95
2022-07-28T19:12:40.500Z,1.60
2022-07-28T19:15:14.382Z,1.90
2022-07-28T19:17:47.393Z,2.38
2022-07-28T19:20:40.377Z,2.20
2022-07-28T19:23:13.341Z,3.00
2022-07-28T19:25:40.131Z,2.20
2022-07-28T19:28:07.233Z,1.52
2022-07-28T19:30:41.387Z,1.80
2022-07-28T19:33:09.577Z,2.10
2022-07-28T19:35:43.353Z,1.80
2022-07-28T19:38:16.449Z,2.00
2022-07-28T19:40:49.372Z,1.90
2022-07-28T19:43:16.204Z,2.05
2022-07-28T19:45:49.403Z,1.70
2022-07-28T19:48:16.073Z,1.70
2022-07-28T19:50:51.392Z,1.88
2022-07-28T19:53:25.240Z,1.73
2022-07-28T19:56:05.347Z,1.77
2022-07-28T19:58:35.873Z,1.75
2022-07-28T20:01:10.375Z,1.98
2022-07-28T20:04:03.693Z,1.40
2022-07-28T20:06:36.355Z,1.63
2022-07-28T20:09:10.510Z,1.50
2022-07-28T20:11:45.308Z,2.13
2022-07-28T20:14:12.263Z,1.90
2022-07-28T20:16:46.461Z,1.95
2022-07-28T20:19:13.423Z,1.30
2022-07-28T20:21:40.030Z,1.77
2022-07-28T20:24:13.734Z,1.90
2022-07-28T20:26:40.667Z,1.67
2022-07-28T20:29:14.361Z,1.60
2022-07-28T20:31:41.215Z,1.60
2022-07-28T20:34:10.013Z,1.60
2022-07-28T20:36:43.317Z,2.20
2022-07-28T20:39:27.924Z,2.13
2022-07-28T20:42:03.344Z,1.73
2022-07-28T20:44:30.666Z,1.70
2022-07-28T20:47:08.328Z,1.33
2022-07-28T20:49:41.380Z,1.55
2022-07-28T20:52:08.032Z,2.45
2022-07-28T20:54:34.908Z,1.90
2022-07-28T20:57:08.317Z,1.73
2022-07-28T20:59:34.931Z,1.55
2022-07-28T21:02:08.379Z,2.20
2022-07-28T21:04:35.214Z,2.20
2022-07-28T21:07:15.366Z,1.70
2022-07-28T21:09:42.311Z,2.03
2022-07-28T21:12:09.207Z,2.22
2022-07-28T21:14:49.351Z,1.80
2022-07-28T21:17:22.369Z,1.80
2022-07-28T21:19:55.759Z,2.20
2022-07-28T21:22:22.920Z,1.80
2022-07-28T21:24:54.904Z,1.92
2022-07-28T21:27:29.349Z,1.95
2022-07-28T21:32:28.348Z,2.00
2022-07-28T21:34:55.237Z,2.20
2022-07-28T21:37:21.870Z,1.88
2022-07-28T21:39:55.345Z,2.13
2022-07-28T21:42:28.337Z,2.13
2022-07-28T21:44:54.972Z,2.30
2022-07-28T21:47:28.335Z,2.25
2022-07-28T21:50:00.714Z,2.85
2022-07-28T21:52:27.349Z,2.17
2022-07-28T21:55:00.334Z,2.47
2022-07-28T21:57:33.353Z,2.30
2022-07-28T22:00:00.354Z,2.17
2022-07-28T22:02:33.344Z,2.35
2022-07-28T22:05:07.416Z,3.03
2022-07-28T22:07:40.339Z,2.58
2022-07-28T22:10:13.412Z,2.85
2022-07-28T22:12:48.352Z,1.92
2022-07-28T22:15:15.158Z,2.20
2022-07-28T22:17:49.363Z,2.45
2022-07-28T22:20:16.031Z,2.28
2022-07-28T22:22:42.735Z,2.30
2022-07-28T22:25:16.350Z,2.17
2022-07-28T22:27:43.261Z,2.45
2022-07-28T22:30:16.402Z,2.17
2022-07-28T22:32:43.051Z,2.53
2022-07-28T22:35:10.754Z,2.50
2022-07-28T22:37:44.360Z,2.38
2022-07-28T22:40:11.993Z,2.30
2022-07-28T22:42:39.004Z,2.83
2022-07-28T22:45:13.367Z,2.25
2022-07-28T22:47:40.048Z,2.55
2022-07-28T22:50:15.507Z,2.70
2022-07-28T22:52:48.345Z,2.85
2022-07-28T22:55:15.012Z,2.45
2022-07-28T22:57:44.039Z,2.58
2022-07-28T23:00:18.585Z,2.88
2022-07-28T23:02:46.340Z,2.80
2022-07-28T23:05:13.914Z,2.95
2022-07-28T23:07:53.406Z,2.90
2022-07-28T23:10:30.787Z,3.08
2022-07-28T23:13:05.329Z,3.25
2022-07-28T23:15:40.557Z,2.60
2022-07-28T23:18:18.368Z,2.70
2022-07-28T23:20:45.144Z,3.33
2022-07-28T23:23:12.645Z,3.10
2022-07-28T23:25:49.355Z,3.08
2022-07-28T23:28:16.027Z,3.40
2022-07-28T23:30:42.798Z,3.53
2022-07-28T23:33:56.469Z,3.03
2022-07-28T23:36:04.680Z,3.10
2022-07-28T23:38:37.392Z,3.75
2022-07-28T23:41:09.598Z,3.85
2022-07-28T23:43:36.214Z,3.63
2022-07-28T23:46:09.351Z,3.65
2022-07-28T23:48:36.084Z,3.08
2022-07-28T23:51:09.341Z,3.47
2022-07-28T23:53:41.105Z,3.15
2022-07-28T23:56:16.342Z,3.45
2022-07-28T23:58:43.008Z,3.38
